• Join FlightAware (Why Join?)
  • Login
  • US Flag 
06:57AM EDT


 

Airport Tracker/Info


-or-


 

Live Flight TrackerFlight Track Log ✈ N5293J ✈ 12-Aug-2014 ✈ KMKG - KGRR

Flight Track Log - Related Links

Times and Time Zones

All times are in EDT time to prevent confusion due to time zone crossing. See the N5293J flight status page for this flight to view local times or setup timezone preferences in your user account.

Time Position Orientation Groundspeed Altitude Reporting Facility
EDT Latitude Longitude Course Direction KTS MPH feet Rate Location/Type
05:06AM 43.1558 -86.2614 114° Southeast 135 155 1,300  Level Chicago Center
05:07AM 43.1258 -86.2678 189° South 116 133 2,700 900 Climbing Chicago Center
05:08AM 43.1050 -86.2197 121° Southeast 134 154 3,200 240 Climbing Chicago Center
05:09AM 43.0844 -86.1564 114° Southeast 160 184 3,200  Level Chicago Center
05:10AM 43.0642 -86.0872 112° Southeast 180 207 3,200  Level Chicago Center
05:11AM 43.0375 -85.9124 114° Southeast  Level FlightAware Approximate
05:11AM 43.0436 -86.0192 112° Southeast 191 220 3,200  Level Chicago Center
05:12AM 43.0269 -85.9578 110° East 191 220 3,200 -60 Level Chicago Center
05:13AM 43.0083 -85.8908 111° Southeast 191 220 3,100 -60 Descending Chicago Center
05:14AM 42.9858 -85.8106 111° Southeast 191 220 3,100  Level Chicago Center
05:15AM 42.9658 -85.7453 113° Southeast 191 220 3,100  Level Chicago Center
05:16AM 42.9444 -85.6783 114° Southeast 191 220 3,100  Level Chicago Center
05:17AM 42.9236 -85.6119 113° Southeast 191 220 3,100  Level Chicago Center
05:18AM 42.9044 -85.5431 111° Southeast 191 220 3,100  Level Chicago Center
05:19AM 42.8864 -85.4761 110° East 191 220 3,100  Level Chicago Center
05:20AM 42.8539 -85.4189 128° Southeast 191 220 3,100  Level Chicago Center
05:21AM 42.8172 -85.3706 136° Southeast 193 222 3,100  Level Chicago Center
05:22AM 42.8528 -85.3422 30° Northeast 180 207 3,100 -60 Level Chicago Center
05:23AM 42.8864 -85.3644 334° Northwest 157 181 3,000 -360 Descending Chicago Center
05:24AM 42.8919 -85.4133 279° West 141 162 2,400 -780 Descending Chicago Center
05:25AM 42.8856 -85.4656 261° West 138 159 1,500 -660 Descending Chicago Center
05:26AM 42.8803 -85.5242 263° West 138 159 1,100 -420 Descending Chicago Center